createdAt,value
2019-03-09T00:00:55.543Z,1.90
2019-03-09T00:03:26.280Z,1.90
2019-03-09T00:05:56.056Z,2.23
2019-03-09T00:08:26.642Z,1.70
2019-03-09T00:10:56.701Z,2.17
2019-03-09T00:13:26.530Z,2.90
2019-03-09T00:15:56.744Z,2.13
2019-03-09T00:18:27.001Z,2.27
2019-03-09T00:20:57.178Z,3.00
2019-03-09T00:23:39.076Z,2.93
2019-03-09T00:26:17.257Z,2.10
2019-03-09T00:28:58.789Z,1.73
2019-03-09T00:31:35.591Z,2.80
2019-03-09T00:34:05.589Z,2.87
2019-03-09T00:36:35.246Z,2.77
2019-03-09T00:39:07.228Z,2.40
2019-03-09T00:41:37.141Z,1.97
2019-03-09T00:44:07.367Z,1.53
2019-03-09T00:46:37.100Z,2.53
2019-03-09T00:49:07.242Z,2.60
2019-03-09T00:51:37.274Z,3.17
2019-03-09T00:54:07.015Z,2.20
2019-03-09T00:56:36.994Z,2.80
2019-03-09T00:59:07.107Z,2.63
2019-03-09T01:01:38.265Z,3.30
2019-03-09T01:04:08.270Z,3.17
2019-03-09T01:06:38.124Z,2.87
2019-03-09T01:09:09.993Z,2.63
2019-03-09T01:11:39.760Z,2.70
2019-03-09T01:14:10.068Z,2.63
2019-03-09T01:16:40.034Z,2.93
2019-03-09T01:19:10.049Z,2.77
2019-03-09T01:21:40.170Z,3.10
2019-03-09T01:24:09.967Z,2.97
2019-03-09T01:26:39.663Z,3.10
2019-03-09T01:29:10.059Z,3.03
2019-03-09T01:31:40.013Z,3.67
2019-03-09T01:34:09.681Z,2.93
2019-03-09T01:36:39.509Z,3.13
2019-03-09T01:39:09.323Z,3.63
2019-03-09T01:41:39.101Z,3.23
2019-03-09T01:44:08.835Z,4.03
2019-03-09T01:46:39.255Z,3.07
2019-03-09T01:49:09.420Z,3.40
2019-03-09T01:51:39.219Z,3.07
2019-03-09T01:54:09.656Z,3.27
2019-03-09T01:56:39.945Z,3.77
2019-03-09T01:59:10.259Z,3.17
2019-03-09T02:01:40.035Z,3.27
2019-03-09T02:04:09.959Z,3.33
2019-03-09T02:06:40.350Z,4.40
2019-03-09T02:09:10.329Z,3.27
2019-03-09T02:11:40.298Z,3.07
2019-03-09T02:14:10.650Z,2.90
2019-03-09T02:16:40.456Z,2.80
2019-03-09T02:19:10.574Z,2.80
2019-03-09T02:21:40.462Z,4.17
2019-03-09T02:24:10.697Z,3.37
2019-03-09T02:26:40.723Z,3.97
2019-03-09T02:29:10.465Z,3.43
2019-03-09T02:31:40.559Z,4.10
2019-03-09T02:34:10.413Z,3.73
2019-03-09T02:36:40.480Z,3.90
2019-03-09T02:39:35.740Z,3.70
2019-03-09T02:42:05.721Z,4.10
2019-03-09T02:44:35.825Z,3.73
2019-03-09T02:47:05.494Z,3.23
2019-03-09T02:49:35.700Z,5.27
2019-03-09T02:52:05.630Z,3.40
2019-03-09T02:54:35.680Z,3.37
2019-03-09T02:57:05.476Z,4.27
2019-03-09T02:59:35.103Z,3.23
2019-03-09T03:02:27.007Z,3.30
2019-03-09T03:04:56.754Z,3.83
2019-03-09T03:07:26.511Z,3.90
2019-03-09T03:09:56.336Z,3.20
2019-03-09T03:12:26.562Z,3.67
2019-03-09T03:14:56.433Z,3.77
2019-03-09T03:17:26.159Z,4.17
2019-03-09T03:19:55.851Z,3.97
2019-03-09T03:22:26.018Z,3.40
2019-03-09T03:24:55.920Z,3.63
2019-03-09T03:27:26.054Z,3.87
2019-03-09T03:29:56.020Z,3.80
2019-03-09T03:32:27.228Z,3.33
2019-03-09T03:34:57.177Z,4.70
2019-03-09T03:37:26.779Z,3.90
2019-03-09T03:39:56.569Z,3.87
2019-03-09T03:42:26.714Z,3.27
2019-03-09T03:44:57.340Z,4.00
2019-03-09T03:47:27.075Z,3.53
2019-03-09T03:49:56.836Z,3.73
2019-03-09T03:52:26.514Z,3.17
2019-03-09T03:54:56.403Z,3.70
2019-03-09T03:57:26.737Z,2.73
2019-03-09T03:59:56.377Z,3.57
2019-03-09T04:02:26.330Z,3.67
2019-03-09T04:04:56.247Z,3.47
2019-03-09T04:07:26.189Z,3.70
2019-03-09T04:09:56.306Z,3.00
2019-03-09T04:12:26.177Z,3.30
2019-03-09T04:14:55.893Z,3.80
2019-03-09T04:17:25.869Z,3.57
2019-03-09T04:19:55.719Z,4.17
2019-03-09T04:22:25.823Z,4.10
2019-03-09T04:24:55.495Z,3.83
2019-03-09T04:27:25.268Z,4.17
2019-03-09T04:29:55.264Z,4.70
2019-03-09T04:32:25.157Z,5.30
2019-03-09T04:34:54.894Z,5.60
2019-03-09T04:37:24.732Z,5.60
2019-03-09T04:39:54.698Z,5.97
2019-03-09T04:42:24.727Z,4.80
2019-03-09T04:44:54.894Z,4.90
2019-03-09T04:47:25.081Z,4.40
2019-03-09T04:49:55.086Z,4.70
2019-03-09T04:52:24.649Z,6.23
2019-03-09T04:54:54.725Z,4.87
2019-03-09T04:57:24.270Z,4.57
2019-03-09T04:59:54.463Z,5.10
2019-03-09T05:02:24.157Z,5.83
2019-03-09T05:04:54.495Z,5.33
2019-03-09T05:07:47.564Z,4.90
2019-03-09T05:10:46.346Z,5.23
2019-03-09T05:13:26.020Z,5.80
2019-03-09T05:15:55.660Z,5.97
2019-03-09T05:18:25.538Z,5.40
2019-03-09T05:20:55.312Z,5.63
2019-03-09T05:23:25.206Z,5.83
2019-03-09T05:25:54.934Z,5.47
2019-03-09T05:28:24.760Z,5.90
2019-03-09T05:30:54.505Z,6.60
2019-03-09T05:33:24.486Z,5.30
2019-03-09T05:35:54.805Z,6.07
2019-03-09T05:38:24.522Z,6.23
2019-03-09T05:40:54.493Z,6.23
2019-03-09T05:43:24.354Z,6.80
2019-03-09T05:45:55.031Z,7.10
2019-03-09T05:48:25.099Z,8.17
2019-03-09T05:50:54.927Z,7.73
2019-03-09T05:53:24.666Z,7.30
2019-03-09T05:55:54.600Z,7.13
2019-03-09T05:58:24.405Z,7.30
2019-03-09T06:00:54.207Z,7.30
2019-03-09T06:03:24.212Z,7.73
2019-03-09T06:06:03.343Z,7.73
2019-03-09T06:08:33.216Z,7.90
2019-03-09T06:11:03.380Z,7.70
2019-03-09T06:13:33.215Z,6.80
2019-03-09T06:16:02.757Z,7.00
2019-03-09T06:18:32.545Z,7.40
2019-03-09T06:21:02.079Z,6.70
2019-03-09T06:23:31.841Z,7.30
2019-03-09T06:26:01.676Z,7.37
2019-03-09T06:28:31.391Z,7.17
2019-03-09T06:31:01.542Z,7.07
2019-03-09T06:33:32.827Z,7.37
2019-03-09T06:36:43.554Z,6.97
2019-03-09T06:39:42.713Z,7.17
2019-03-09T06:42:46.705Z,7.33
2019-03-09T06:45:18.065Z,6.60
2019-03-09T06:47:47.800Z,7.03
2019-03-09T06:50:18.792Z,5.97
2019-03-09T06:52:48.617Z,5.83
2019-03-09T06:55:19.115Z,6.20
2019-03-09T06:57:48.829Z,6.30
2019-03-09T07:00:41.374Z,6.40
2019-03-09T07:03:11.617Z,5.77
2019-03-09T07:05:41.300Z,6.10
2019-03-09T07:08:10.991Z,5.80
2019-03-09T07:10:40.765Z,6.10
2019-03-09T07:13:10.708Z,6.50
2019-03-09T07:15:42.391Z,7.00
2019-03-09T07:18:17.890Z,5.73
2019-03-09T07:20:48.410Z,7.10
2019-03-09T07:23:19.339Z,6.37
2019-03-09T07:25:49.110Z,6.90
2019-03-09T07:28:19.057Z,6.70
2019-03-09T07:30:48.905Z,7.27
2019-03-09T07:33:19.133Z,7.10
2019-03-09T07:35:49.006Z,6.83
2019-03-09T07:38:19.067Z,7.00
2019-03-09T07:40:48.905Z,7.13
2019-03-09T07:43:18.729Z,6.53
2019-03-09T07:45:48.440Z,6.30
2019-03-09T07:48:18.209Z,6.53
2019-03-09T07:50:47.981Z,6.73
2019-03-09T07:53:17.760Z,5.80
2019-03-09T07:55:48.264Z,6.17
2019-03-09T07:58:18.375Z,5.93
2019-03-09T08:00:48.106Z,6.13
2019-03-09T08:03:18.190Z,5.57
2019-03-09T08:05:47.866Z,5.80
2019-03-09T08:08:17.629Z,6.17
2019-03-09T08:10:48.591Z,5.63
2019-03-09T08:13:18.994Z,6.07
2019-03-09T08:15:48.837Z,5.97
2019-03-09T08:18:18.629Z,6.40
2019-03-09T08:20:48.263Z,6.40
2019-03-09T08:23:18.363Z,6.40
2019-03-09T08:25:48.274Z,5.80
2019-03-09T08:28:18.083Z,5.87
2019-03-09T08:30:47.773Z,6.03
2019-03-09T08:33:17.429Z,5.50
2019-03-09T08:35:47.093Z,5.47
2019-03-09T08:38:16.989Z,6.20
2019-03-09T08:40:47.096Z,5.70
2019-03-09T08:43:17.289Z,5.67
2019-03-09T08:45:47.276Z,5.57
2019-03-09T08:48:17.763Z,5.50
2019-03-09T08:50:47.906Z,4.60
2019-03-09T08:53:18.111Z,4.70
2019-03-09T08:55:47.833Z,4.60
2019-03-09T08:58:17.973Z,4.70
2019-03-09T09:00:48.493Z,4.27
2019-03-09T09:03:18.312Z,4.97
2019-03-09T09:05:48.411Z,4.30
2019-03-09T09:08:18.136Z,4.00
2019-03-09T09:10:47.900Z,4.10
2019-03-09T09:13:18.072Z,4.13
2019-03-09T09:15:47.733Z,4.10
2019-03-09T09:18:17.451Z,3.37
2019-03-09T09:20:47.279Z,3.50
2019-03-09T09:23:17.696Z,4.87
2019-03-09T09:25:47.948Z,3.40
2019-03-09T09:28:18.235Z,3.83
2019-03-09T09:30:48.480Z,3.50
2019-03-09T09:33:19.231Z,5.27
2019-03-09T09:35:49.249Z,3.93
2019-03-09T09:38:19.118Z,3.60
2019-03-09T09:40:48.951Z,3.30
2019-03-09T09:43:18.753Z,3.53
2019-03-09T09:45:48.569Z,3.60
2019-03-09T09:48:18.571Z,3.27
2019-03-09T09:50:48.386Z,3.27
2019-03-09T09:53:18.509Z,2.70
2019-03-09T09:55:48.277Z,3.40
2019-03-09T09:58:18.286Z,2.83
2019-03-09T10:00:48.032Z,2.80
2019-03-09T10:03:18.203Z,3.50
2019-03-09T10:05:48.251Z,3.53
2019-03-09T10:08:20.089Z,2.90
2019-03-09T10:10:49.705Z,3.60
2019-03-09T10:13:19.445Z,3.10
2019-03-09T10:15:49.176Z,3.60
2019-03-09T10:18:19.365Z,2.90
2019-03-09T10:20:49.331Z,3.20
2019-03-09T10:23:19.220Z,3.20
2019-03-09T10:25:49.302Z,2.93
2019-03-09T10:28:18.996Z,3.63
2019-03-09T10:30:50.094Z,3.33
2019-03-09T10:33:20.035Z,2.63
2019-03-09T10:35:50.212Z,3.57
2019-03-09T10:38:20.685Z,3.03
2019-03-09T10:40:50.751Z,2.97
2019-03-09T10:43:20.768Z,2.60
2019-03-09T10:45:50.586Z,3.10
2019-03-09T10:48:20.420Z,3.87
2019-03-09T10:50:50.910Z,3.27
2019-03-09T10:53:22.071Z,3.20
2019-03-09T10:55:52.818Z,3.47
2019-03-09T10:58:23.288Z,3.93
2019-03-09T11:00:53.335Z,3.07
2019-03-09T11:03:23.893Z,3.93
2019-03-09T11:05:53.593Z,3.57
2019-03-09T11:08:23.660Z,3.40
2019-03-09T11:10:53.509Z,3.00
2019-03-09T11:13:23.554Z,2.70
2019-03-09T11:15:53.528Z,2.93
2019-03-09T11:18:23.949Z,2.87
2019-03-09T11:20:53.788Z,3.20
2019-03-09T11:23:24.032Z,2.57
2019-03-09T11:25:53.905Z,3.10
2019-03-09T11:28:23.726Z,2.80
2019-03-09T11:30:53.615Z,2.30
2019-03-09T11:33:23.602Z,3.40
2019-03-09T11:35:53.502Z,2.47
2019-03-09T11:38:24.091Z,2.57
2019-03-09T11:40:57.839Z,2.40
2019-03-09T11:43:26.070Z,2.33
2019-03-09T11:45:56.430Z,2.43
2019-03-09T11:48:26.314Z,2.60
2019-03-09T11:50:56.353Z,2.33
2019-03-09T11:53:25.979Z,2.10
2019-03-09T11:55:56.163Z,2.70
2019-03-09T11:58:26.354Z,1.73
2019-03-09T12:00:56.116Z,2.50
2019-03-09T12:03:25.926Z,1.87
2019-03-09T12:05:56.026Z,1.63
2019-03-09T12:08:26.145Z,2.20
2019-03-09T12:10:55.965Z,1.70
2019-03-09T12:13:26.549Z,1.90
2019-03-09T12:15:59.177Z,2.20
2019-03-09T12:18:28.777Z,2.00
2019-03-09T12:20:59.204Z,2.23
2019-03-09T12:23:29.983Z,1.73
2019-03-09T12:25:59.877Z,2.10
2019-03-09T12:28:30.051Z,2.93
2019-03-09T12:31:00.035Z,2.20
2019-03-09T12:33:30.236Z,2.60
2019-03-09T12:36:00.055Z,2.67
2019-03-09T12:38:30.466Z,3.10
2019-03-09T12:41:00.216Z,2.83
2019-03-09T12:43:30.311Z,2.80
2019-03-09T12:46:00.143Z,3.23
2019-03-09T12:48:30.016Z,3.43
2019-03-09T12:50:59.865Z,3.17
2019-03-09T12:53:30.076Z,3.57
2019-03-09T12:56:00.024Z,3.00
2019-03-09T12:58:29.782Z,3.43
2019-03-09T13:01:00.146Z,4.00
2019-03-09T13:03:30.215Z,4.00
2019-03-09T13:06:00.062Z,4.30
2019-03-09T13:08:30.407Z,4.13
2019-03-09T13:11:00.239Z,4.33
2019-03-09T13:13:30.008Z,5.27
2019-03-09T13:15:59.893Z,3.53
2019-03-09T13:18:30.220Z,4.73
2019-03-09T13:21:00.252Z,4.13
2019-03-09T13:23:30.242Z,4.30
2019-03-09T13:26:00.389Z,4.03
2019-03-09T13:28:30.405Z,4.47
2019-03-09T13:31:00.672Z,5.00
2019-03-09T13:33:30.551Z,4.40
2019-03-09T13:36:00.242Z,4.23
2019-03-09T13:38:30.580Z,4.90
2019-03-09T13:41:01.145Z,5.50
2019-03-09T13:43:30.935Z,4.70
2019-03-09T13:46:02.390Z,5.10
2019-03-09T13:48:32.142Z,5.63
2019-03-09T13:51:01.875Z,6.13
2019-03-09T13:53:31.880Z,6.93
2019-03-09T13:56:01.991Z,6.40
2019-03-09T13:58:32.139Z,5.50
2019-03-09T14:01:01.901Z,6.03
2019-03-09T14:03:31.767Z,7.87
2019-03-09T14:06:01.526Z,6.97
2019-03-09T14:08:31.231Z,7.07
2019-03-09T14:11:01.068Z,7.53
2019-03-09T14:13:31.240Z,7.97
2019-03-09T14:16:01.398Z,7.33
2019-03-09T14:18:31.892Z,7.47
2019-03-09T14:21:01.514Z,6.30
2019-03-09T14:23:31.595Z,6.57
2019-03-09T14:26:02.174Z,6.50
2019-03-09T14:28:32.015Z,7.30
2019-03-09T14:31:01.803Z,6.20
2019-03-09T14:33:31.745Z,4.93
2019-03-09T14:36:01.730Z,5.67
2019-03-09T14:38:32.215Z,6.13
2019-03-09T14:41:02.077Z,5.13
2019-03-09T14:43:31.907Z,5.87
2019-03-09T14:46:01.703Z,6.07
2019-03-09T14:48:31.871Z,4.47
2019-03-09T14:51:01.894Z,5.70
2019-03-09T14:53:32.060Z,6.53
2019-03-09T14:56:02.134Z,5.27
2019-03-09T14:58:32.003Z,5.93
2019-03-09T15:01:03.396Z,6.10
2019-03-09T15:03:33.604Z,6.10
2019-03-09T15:06:03.340Z,5.20
2019-03-09T15:08:33.694Z,5.17
2019-03-09T15:11:04.068Z,5.70
2019-03-09T15:13:34.529Z,5.97
2019-03-09T15:16:04.626Z,5.40
2019-03-09T15:18:34.880Z,5.50
2019-03-09T15:21:05.042Z,6.27
2019-03-09T15:23:53.850Z,4.93
2019-03-09T15:26:23.941Z,5.07
2019-03-09T15:28:53.690Z,5.57
2019-03-09T15:31:23.816Z,3.80
2019-03-09T15:33:54.002Z,4.03
2019-03-09T15:36:24.355Z,3.10
2019-03-09T15:38:54.167Z,4.27
2019-03-09T15:41:23.874Z,4.60
2019-03-09T15:43:53.580Z,5.20
2019-03-09T15:46:23.257Z,4.70
2019-03-09T15:48:53.073Z,3.73
2019-03-09T15:51:22.995Z,4.23
2019-03-09T15:53:53.239Z,5.90
2019-03-09T15:56:23.805Z,4.30
2019-03-09T15:58:54.068Z,5.03
2019-03-09T16:01:23.917Z,4.63
2019-03-09T16:03:53.862Z,4.23
2019-03-09T16:06:24.470Z,4.23
2019-03-09T16:08:54.706Z,4.20
2019-03-09T16:11:24.516Z,4.30
2019-03-09T16:13:54.904Z,4.10
2019-03-09T16:16:24.798Z,3.97
2019-03-09T16:18:54.602Z,4.60
2019-03-09T16:21:24.670Z,4.40
2019-03-09T16:23:54.390Z,4.43
2019-03-09T16:26:24.270Z,4.50
2019-03-09T16:28:54.329Z,4.60
2019-03-09T16:31:23.999Z,3.87
2019-03-09T16:33:53.831Z,2.50
2019-03-09T16:36:23.617Z,1.40
2019-03-09T16:38:53.374Z,1.90
2019-03-09T16:41:23.216Z,2.73
2019-03-09T16:43:54.034Z,1.63
2019-03-09T16:46:23.819Z,1.90
2019-03-09T16:48:53.432Z,1.83
2019-03-09T16:51:23.271Z,1.83
2019-03-09T16:53:53.060Z,1.80
2019-03-09T16:56:23.141Z,1.57
2019-03-09T16:58:52.894Z,1.90
2019-03-09T17:01:22.983Z,1.97
2019-03-09T17:03:52.696Z,1.93
2019-03-09T17:06:22.842Z,1.83
2019-03-09T17:08:53.217Z,2.10
2019-03-09T17:11:23.279Z,2.40
2019-03-09T17:13:52.974Z,3.10
2019-03-09T17:16:22.802Z,2.33
2019-03-09T17:18:52.907Z,3.03
2019-03-09T17:21:22.709Z,3.60
2019-03-09T17:23:52.593Z,3.30
2019-03-09T17:26:22.337Z,2.50
2019-03-09T17:28:53.961Z,2.50
2019-03-09T17:31:23.802Z,2.90
2019-03-09T17:33:54.176Z,3.30
2019-03-09T17:36:23.878Z,2.37
2019-03-09T17:38:53.650Z,3.33
2019-03-09T17:41:23.765Z,2.87
2019-03-09T17:43:53.579Z,2.40
2019-03-09T17:46:23.429Z,2.50
2019-03-09T17:48:53.604Z,3.47
2019-03-09T17:51:23.359Z,2.70
2019-03-09T17:53:53.619Z,3.50
2019-03-09T17:56:23.372Z,2.43
2019-03-09T17:58:53.761Z,3.00
2019-03-09T18:01:23.575Z,3.20
2019-03-09T18:03:53.661Z,2.77
2019-03-09T18:06:24.291Z,3.10
2019-03-09T18:08:54.124Z,3.07
2019-03-09T18:11:24.281Z,3.40
2019-03-09T18:13:54.343Z,2.90
2019-03-09T18:16:24.393Z,3.47
2019-03-09T18:18:54.863Z,3.60
2019-03-09T18:21:24.727Z,2.77
2019-03-09T18:23:54.276Z,3.00
2019-03-09T18:26:24.474Z,2.47
2019-03-09T18:28:54.267Z,3.10
2019-03-09T18:31:24.589Z,2.83
2019-03-09T18:33:54.998Z,3.70
2019-03-09T18:36:25.028Z,2.80
2019-03-09T18:38:55.134Z,2.77
2019-03-09T18:41:25.272Z,3.40
2019-03-09T18:43:55.361Z,2.67
2019-03-09T18:46:25.219Z,2.80
2019-03-09T18:48:55.233Z,2.90
2019-03-09T18:51:25.013Z,3.43
2019-03-09T18:53:55.169Z,2.87
2019-03-09T18:56:25.159Z,2.70
2019-03-09T18:58:56.134Z,3.00
2019-03-09T19:01:26.218Z,3.40
2019-03-09T19:03:55.944Z,3.57
2019-03-09T19:06:25.842Z,3.93
2019-03-09T19:08:55.840Z,3.67
2019-03-09T19:11:25.922Z,3.00
2019-03-09T19:13:55.808Z,3.60
2019-03-09T19:16:25.731Z,3.60
2019-03-09T19:18:55.381Z,4.30
2019-03-09T19:21:24.994Z,5.20
2019-03-09T19:23:55.199Z,3.30
2019-03-09T19:26:25.100Z,3.87
2019-03-09T19:28:55.056Z,3.30
2019-03-09T19:31:24.997Z,3.43
2019-03-09T19:33:55.074Z,3.40
2019-03-09T19:36:24.871Z,4.57
2019-03-09T19:38:54.876Z,4.37
2019-03-09T19:41:24.724Z,3.40
2019-03-09T19:43:55.272Z,3.77
2019-03-09T19:46:24.921Z,4.10
2019-03-09T19:48:55.103Z,3.43
2019-03-09T19:51:24.989Z,3.67
2019-03-09T19:53:55.218Z,3.23
2019-03-09T19:56:25.267Z,2.63
2019-03-09T19:58:55.442Z,2.33
2019-03-09T20:01:25.255Z,3.20
2019-03-09T20:03:55.255Z,3.80
2019-03-09T20:06:25.317Z,2.43
2019-03-09T20:08:54.953Z,2.03
2019-03-09T20:11:25.177Z,2.93
2019-03-09T20:13:55.637Z,2.70
2019-03-09T20:16:25.311Z,2.93
2019-03-09T20:18:55.044Z,2.50
2019-03-09T20:21:25.240Z,2.30
2019-03-09T20:23:55.038Z,2.83
2019-03-09T20:26:24.609Z,2.20
2019-03-09T20:28:54.457Z,2.20
2019-03-09T20:31:24.613Z,2.10
2019-03-09T20:33:54.730Z,1.93
2019-03-09T20:36:24.841Z,2.10
2019-03-09T20:38:54.696Z,2.50
2019-03-09T20:41:24.305Z,1.73
2019-03-09T20:43:54.101Z,1.53
2019-03-09T20:46:24.452Z,2.17
2019-03-09T20:48:54.990Z,1.90
2019-03-09T20:51:24.648Z,2.50
2019-03-09T20:53:54.761Z,2.00
2019-03-09T20:56:24.530Z,1.90
2019-03-09T20:58:54.189Z,2.00
2019-03-09T21:01:23.974Z,2.47
2019-03-09T21:03:54.591Z,1.60
2019-03-09T21:06:24.316Z,1.93
2019-03-09T21:08:53.954Z,1.97
2019-03-09T21:11:24.366Z,1.97
2019-03-09T21:13:54.746Z,2.60
2019-03-09T21:16:24.919Z,2.47
2019-03-09T21:18:54.672Z,2.53
2019-03-09T21:21:24.742Z,2.03
2019-03-09T21:23:54.527Z,2.27
2019-03-09T21:26:25.112Z,1.73
2019-03-09T21:28:54.794Z,2.83
2019-03-09T21:31:24.796Z,2.27
2019-03-09T21:33:55.109Z,3.00
2019-03-09T21:36:25.231Z,2.63
2019-03-09T21:38:55.147Z,2.10
2019-03-09T21:41:25.245Z,2.77
2019-03-09T21:43:55.998Z,2.53
2019-03-09T21:46:26.172Z,2.83
2019-03-09T21:48:56.222Z,2.30
2019-03-09T21:51:26.071Z,2.83
2019-03-09T21:53:56.593Z,2.80
2019-03-09T21:56:26.974Z,2.53
2019-03-09T21:58:57.560Z,2.50
2019-03-09T22:01:27.337Z,3.40
2019-03-09T22:03:58.079Z,3.10
2019-03-09T22:06:28.545Z,4.00
2019-03-09T22:08:58.317Z,3.50
2019-03-09T22:11:28.299Z,3.17
2019-03-09T22:13:58.529Z,3.57
2019-03-09T22:16:28.965Z,4.63
2019-03-09T22:18:58.774Z,3.70
2019-03-09T22:21:29.162Z,4.00
2019-03-09T22:23:58.799Z,3.97
2019-03-09T22:26:28.525Z,4.03
2019-03-09T22:28:58.318Z,4.90
2019-03-09T22:31:28.502Z,4.47
2019-03-09T22:33:58.332Z,4.30
2019-03-09T22:36:28.048Z,4.87
2019-03-09T22:38:57.837Z,4.17
2019-03-09T22:41:27.673Z,4.23
2019-03-09T22:43:58.512Z,4.87
2019-03-09T22:46:28.552Z,4.90
2019-03-09T22:48:58.237Z,5.20
2019-03-09T22:51:28.074Z,6.80
2019-03-09T22:53:58.393Z,5.63
2019-03-09T22:56:28.422Z,6.47
2019-03-09T22:58:58.083Z,6.00
2019-03-09T23:01:46.769Z,5.67
2019-03-09T23:04:16.740Z,6.50
2019-03-09T23:06:46.642Z,5.80
2019-03-09T23:09:17.057Z,7.10
2019-03-09T23:11:47.401Z,6.40
2019-03-09T23:14:17.240Z,7.17
2019-03-09T23:16:46.909Z,7.57
2019-03-09T23:19:16.630Z,7.10
2019-03-09T23:21:46.305Z,6.33
2019-03-09T23:24:16.106Z,7.83
2019-03-09T23:26:45.880Z,7.37
2019-03-09T23:29:15.664Z,8.03
2019-03-09T23:31:45.286Z,7.23
2019-03-09T23:34:15.158Z,6.40
2019-03-09T23:36:45.349Z,6.80
2019-03-09T23:39:15.498Z,7.27
2019-03-09T23:41:45.846Z,6.40
2019-03-09T23:44:15.911Z,6.87
2019-03-09T23:46:45.727Z,6.20
2019-03-09T23:49:15.871Z,6.73
2019-03-09T23:51:45.767Z,5.60
2019-03-09T23:54:15.550Z,7.27
2019-03-09T23:56:45.389Z,8.50
2019-03-09T23:59:15.179Z,6.70
